sensor_id;sensor_type;location;lat;lon;timestamp;temperature;humidity
21115;DHT22;10715;48.546;9.896;2023-11-19T00:01:40;5.10;99.90
21115;DHT22;10715;48.546;9.896;2023-11-19T00:04:06;5.10;99.90
21115;DHT22;10715;48.546;9.896;2023-11-19T00:06:32;5.10;99.90
21115;DHT22;10715;48.546;9.896;2023-11-19T00:08:58;5.10;99.90
21115;DHT22;10715;48.546;9.896;2023-11-19T00:11:24;5.20;99.90
21115;DHT22;10715;48.546;9.896;2023-11-19T00:13:49;5.20;99.90
21115;DHT22;10715;48.546;9.896;2023-11-19T00:16:15;5.20;99.90
21115;DHT22;10715;48.546;9.896;2023-11-19T00:18:42;5.20;99.90
21115;DHT22;10715;48.546;9.896;2023-11-19T00:21:08;5.20;99.90
21115;DHT22;10715;48.546;9.896;2023-11-19T00:23:35;5.20;99.90
21115;DHT22;10715;48.546;9.896;2023-11-19T00:26:01;5.20;99.90
21115;DHT22;10715;48.546;9.896;2023-11-19T00:28:27;5.20;99.90
21115;DHT22;10715;48.546;9.896;2023-11-19T00:30:53;5.20;99.90
21115;DHT22;10715;48.546;9.896;2023-11-19T00:33:19;5.20;99.90
21115;DHT22;10715;48.546;9.896;2023-11-19T00:35:45;5.20;99.90
21115;DHT22;10715;48.546;9.896;2023-11-19T00:38:11;5.20;99.90
21115;DHT22;10715;48.546;9.896;2023-11-19T00:40:36;5.20;99.90
21115;DHT22;10715;48.546;9.896;2023-11-19T00:43:02;5.20;99.90
21115;DHT22;10715;48.546;9.896;2023-11-19T00:45:28;5.30;99.90
21115;DHT22;10715;48.546;9.896;2023-11-19T00:47:55;5.30;99.90
21115;DHT22;10715;48.546;9.896;2023-11-19T00:50:20;5.30;99.90
21115;DHT22;10715;48.546;9.896;2023-11-19T00:52:46;5.30;99.90
21115;DHT22;10715;48.546;9.896;2023-11-19T00:55:12;5.30;99.90
21115;DHT22;10715;48.546;9.896;2023-11-19T00:57:38;5.30;99.90
21115;DHT22;10715;48.546;9.896;2023-11-19T01:00:07;5.40;99.90
21115;DHT22;10715;48.546;9.896;2023-11-19T01:02:43;5.40;99.90
21115;DHT22;10715;48.546;9.896;2023-11-19T01:05:09;5.40;99.90
21115;DHT22;10715;48.546;9.896;2023-11-19T01:07:35;5.40;99.90
21115;DHT22;10715;48.546;9.896;2023-11-19T01:10:00;5.40;99.90
21115;DHT22;10715;48.546;9.896;2023-11-19T01:12:26;5.40;99.90
21115;DHT22;10715;48.546;9.896;2023-11-19T01:14:52;5.40;99.90
21115;DHT22;10715;48.546;9.896;2023-11-19T01:17:17;5.40;99.90
21115;DHT22;10715;48.546;9.896;2023-11-19T01:19:43;5.40;99.90
21115;DHT22;10715;48.546;9.896;2023-11-19T01:22:09;5.40;99.90
21115;DHT22;10715;48.546;9.896;2023-11-19T01:24:35;5.40;99.90
21115;DHT22;10715;48.546;9.896;2023-11-19T01:27:00;5.40;99.90
21115;DHT22;10715;48.546;9.896;2023-11-19T01:29:26;5.50;99.90
21115;DHT22;10715;48.546;9.896;2023-11-19T01:31:52;5.50;99.90
21115;DHT22;10715;48.546;9.896;2023-11-19T01:34:18;5.50;99.90
21115;DHT22;10715;48.546;9.896;2023-11-19T01:36:44;5.50;99.90
21115;DHT22;10715;48.546;9.896;2023-11-19T01:39:11;5.50;99.90
21115;DHT22;10715;48.546;9.896;2023-11-19T01:41:37;5.50;99.90
21115;DHT22;10715;48.546;9.896;2023-11-19T01:44:06;5.50;99.90
21115;DHT22;10715;48.546;9.896;2023-11-19T01:46:32;5.50;99.90
21115;DHT22;10715;48.546;9.896;2023-11-19T01:48:59;5.50;99.90
21115;DHT22;10715;48.546;9.896;2023-11-19T01:51:26;5.60;99.90
21115;DHT22;10715;48.546;9.896;2023-11-19T01:53:53;5.60;99.90
21115;DHT22;10715;48.546;9.896;2023-11-19T01:56:19;5.60;99.90
21115;DHT22;10715;48.546;9.896;2023-11-19T01:58:46;5.60;99.90
21115;DHT22;10715;48.546;9.896;2023-11-19T02:01:14;5.60;99.90
21115;DHT22;10715;48.546;9.896;2023-11-19T02:03:40;5.60;99.90
21115;DHT22;10715;48.546;9.896;2023-11-19T02:06:06;5.60;99.90
21115;DHT22;10715;48.546;9.896;2023-11-19T02:08:32;5.60;99.90
21115;DHT22;10715;48.546;9.896;2023-11-19T02:10:58;5.60;99.90
21115;DHT22;10715;48.546;9.896;2023-11-19T02:13:26;5.70;99.90
21115;DHT22;10715;48.546;9.896;2023-11-19T02:15:52;5.70;99.90
21115;DHT22;10715;48.546;9.896;2023-11-19T02:20:50;5.70;99.90
21115;DHT22;10715;48.546;9.896;2023-11-19T02:23:17;5.70;99.90
21115;DHT22;10715;48.546;9.896;2023-11-19T02:25:47;5.70;99.90
21115;DHT22;10715;48.546;9.896;2023-11-19T02:28:17;5.70;99.90
21115;DHT22;10715;48.546;9.896;2023-11-19T02:30:43;5.70;99.90
21115;DHT22;10715;48.546;9.896;2023-11-19T02:33:09;5.80;99.90
21115;DHT22;10715;48.546;9.896;2023-11-19T02:35:35;5.80;99.90
21115;DHT22;10715;48.546;9.896;2023-11-19T02:38:01;5.80;99.90
21115;DHT22;10715;48.546;9.896;2023-11-19T02:40:28;5.80;99.90
21115;DHT22;10715;48.546;9.896;2023-11-19T02:42:54;5.80;99.90
21115;DHT22;10715;48.546;9.896;2023-11-19T02:45:22;5.90;99.90
21115;DHT22;10715;48.546;9.896;2023-11-19T02:47:48;5.90;99.90
21115;DHT22;10715;48.546;9.896;2023-11-19T02:50:14;5.90;99.90
21115;DHT22;10715;48.546;9.896;2023-11-19T02:52:49;5.90;99.90
21115;DHT22;10715;48.546;9.896;2023-11-19T02:55:15;5.90;99.90
21115;DHT22;10715;48.546;9.896;2023-11-19T02:57:43;5.90;99.90
21115;DHT22;10715;48.546;9.896;2023-11-19T03:00:15;5.90;99.90
21115;DHT22;10715;48.546;9.896;2023-11-19T03:02:41;5.90;99.90
21115;DHT22;10715;48.546;9.896;2023-11-19T03:05:12;5.90;99.90
21115;DHT22;10715;48.546;9.896;2023-11-19T03:07:43;5.90;99.90
21115;DHT22;10715;48.546;9.896;2023-11-19T03:10:10;5.90;99.90
21115;DHT22;10715;48.546;9.896;2023-11-19T03:12:43;6.00;99.90
21115;DHT22;10715;48.546;9.896;2023-11-19T03:15:09;6.00;99.90
21115;DHT22;10715;48.546;9.896;2023-11-19T03:17:39;6.00;99.90
21115;DHT22;10715;48.546;9.896;2023-11-19T03:20:07;6.00;99.90
21115;DHT22;10715;48.546;9.896;2023-11-19T03:22:38;6.10;99.90
21115;DHT22;10715;48.546;9.896;2023-11-19T03:25:05;6.10;99.90
21115;DHT22;10715;48.546;9.896;2023-11-19T03:27:37;6.10;99.90
21115;DHT22;10715;48.546;9.896;2023-11-19T03:30:05;6.10;99.90
21115;DHT22;10715;48.546;9.896;2023-11-19T03:32:34;6.10;99.90
21115;DHT22;10715;48.546;9.896;2023-11-19T03:35:01;6.20;99.90
21115;DHT22;10715;48.546;9.896;2023-11-19T03:37:27;6.20;99.90
21115;DHT22;10715;48.546;9.896;2023-11-19T03:39:54;6.20;99.90
21115;DHT22;10715;48.546;9.896;2023-11-19T03:42:20;6.20;99.90
21115;DHT22;10715;48.546;9.896;2023-11-19T03:44:47;6.20;99.90
21115;DHT22;10715;48.546;9.896;2023-11-19T03:47:12;6.20;99.90
21115;DHT22;10715;48.546;9.896;2023-11-19T03:49:38;6.20;99.90
21115;DHT22;10715;48.546;9.896;2023-11-19T03:52:04;6.20;99.90
21115;DHT22;10715;48.546;9.896;2023-11-19T03:54:30;6.20;99.90
21115;DHT22;10715;48.546;9.896;2023-11-19T03:56:55;6.30;99.90
21115;DHT22;10715;48.546;9.896;2023-11-19T03:59:21;6.30;99.90
21115;DHT22;10715;48.546;9.896;2023-11-19T04:01:47;6.30;99.90
21115;DHT22;10715;48.546;9.896;2023-11-19T04:04:13;6.30;99.90
21115;DHT22;10715;48.546;9.896;2023-11-19T04:06:39;6.30;99.90
21115;DHT22;10715;48.546;9.896;2023-11-19T04:09:05;6.30;99.90
21115;DHT22;10715;48.546;9.896;2023-11-19T04:11:31;6.30;99.90
21115;DHT22;10715;48.546;9.896;2023-11-19T04:13:59;6.30;99.90
21115;DHT22;10715;48.546;9.896;2023-11-19T04:16:31;6.40;99.90
21115;DHT22;10715;48.546;9.896;2023-11-19T04:18:57;6.40;99.90
21115;DHT22;10715;48.546;9.896;2023-11-19T04:21:23;6.40;99.90
21115;DHT22;10715;48.546;9.896;2023-11-19T04:23:49;6.40;99.90
21115;DHT22;10715;48.546;9.896;2023-11-19T04:26:15;6.40;99.90
21115;DHT22;10715;48.546;9.896;2023-11-19T04:28:41;6.40;99.90
21115;DHT22;10715;48.546;9.896;2023-11-19T04:31:07;6.40;99.90
21115;DHT22;10715;48.546;9.896;2023-11-19T04:33:34;6.50;99.90
21115;DHT22;10715;48.546;9.896;2023-11-19T04:36:03;6.50;99.90
21115;DHT22;10715;48.546;9.896;2023-11-19T04:38:29;6.50;99.90
21115;DHT22;10715;48.546;9.896;2023-11-19T04:40:55;6.50;99.90
21115;DHT22;10715;48.546;9.896;2023-11-19T04:43:22;6.50;99.90
21115;DHT22;10715;48.546;9.896;2023-11-19T04:45:48;6.50;99.90
21115;DHT22;10715;48.546;9.896;2023-11-19T04:48:14;6.50;99.90
21115;DHT22;10715;48.546;9.896;2023-11-19T04:50:40;6.50;99.90
21115;DHT22;10715;48.546;9.896;2023-11-19T04:53:05;6.60;99.90
21115;DHT22;10715;48.546;9.896;2023-11-19T04:55:31;6.60;99.90
21115;DHT22;10715;48.546;9.896;2023-11-19T04:57:57;6.60;99.90
21115;DHT22;10715;48.546;9.896;2023-11-19T05:00:22;6.60;99.90
21115;DHT22;10715;48.546;9.896;2023-11-19T05:02:48;6.60;99.90
21115;DHT22;10715;48.546;9.896;2023-11-19T05:05:16;6.60;99.90
21115;DHT22;10715;48.546;9.896;2023-11-19T05:07:42;6.60;99.90
21115;DHT22;10715;48.546;9.896;2023-11-19T05:10:08;6.60;99.90
21115;DHT22;10715;48.546;9.896;2023-11-19T05:12:34;6.60;99.90
21115;DHT22;10715;48.546;9.896;2023-11-19T05:14:59;6.60;99.90
21115;DHT22;10715;48.546;9.896;2023-11-19T05:17:26;6.60;99.90
21115;DHT22;10715;48.546;9.896;2023-11-19T05:19:52;6.60;99.90
21115;DHT22;10715;48.546;9.896;2023-11-19T05:22:18;6.70;99.90
21115;DHT22;10715;48.546;9.896;2023-11-19T05:24:47;6.70;99.90
21115;DHT22;10715;48.546;9.896;2023-11-19T05:27:14;6.70;99.90
21115;DHT22;10715;48.546;9.896;2023-11-19T05:29:40;6.70;99.90
21115;DHT22;10715;48.546;9.896;2023-11-19T05:32:06;6.70;99.90
21115;DHT22;10715;48.546;9.896;2023-11-19T05:34:32;6.70;99.90
21115;DHT22;10715;48.546;9.896;2023-11-19T05:36:58;6.70;99.90
21115;DHT22;10715;48.546;9.896;2023-11-19T05:39:24;6.70;99.90
21115;DHT22;10715;48.546;9.896;2023-11-19T05:41:51;6.70;99.90
21115;DHT22;10715;48.546;9.896;2023-11-19T05:44:18;6.80;99.90
21115;DHT22;10715;48.546;9.896;2023-11-19T05:46:45;6.80;99.90
21115;DHT22;10715;48.546;9.896;2023-11-19T05:49:12;6.80;99.90
21115;DHT22;10715;48.546;9.896;2023-11-19T05:51:39;6.80;99.90
21115;DHT22;10715;48.546;9.896;2023-11-19T05:54:07;6.90;99.90
21115;DHT22;10715;48.546;9.896;2023-11-19T05:56:33;6.90;99.90
21115;DHT22;10715;48.546;9.896;2023-11-19T05:59:00;6.90;99.90
21115;DHT22;10715;48.546;9.896;2023-11-19T06:01:28;6.90;99.90
21115;DHT22;10715;48.546;9.896;2023-11-19T06:03:54;7.00;99.90
21115;DHT22;10715;48.546;9.896;2023-11-19T06:06:20;7.00;99.90
21115;DHT22;10715;48.546;9.896;2023-11-19T06:08:46;7.00;99.90
21115;DHT22;10715;48.546;9.896;2023-11-19T06:11:12;7.10;99.90
21115;DHT22;10715;48.546;9.896;2023-11-19T06:13:44;7.10;99.90
21115;DHT22;10715;48.546;9.896;2023-11-19T06:16:10;7.20;99.90
21115;DHT22;10715;48.546;9.896;2023-11-19T06:18:36;7.20;99.90
21115;DHT22;10715;48.546;9.896;2023-11-19T06:21:02;7.20;99.90
21115;DHT22;10715;48.546;9.896;2023-11-19T06:23:28;7.30;99.90
21115;DHT22;10715;48.546;9.896;2023-11-19T06:25:54;7.30;99.90
21115;DHT22;10715;48.546;9.896;2023-11-19T06:28:19;7.40;99.90
21115;DHT22;10715;48.546;9.896;2023-11-19T06:30:45;7.50;99.90
21115;DHT22;10715;48.546;9.896;2023-11-19T06:33:14;7.60;99.90
21115;DHT22;10715;48.546;9.896;2023-11-19T06:35:40;7.70;99.90
21115;DHT22;10715;48.546;9.896;2023-11-19T06:38:05;7.80;99.90
21115;DHT22;10715;48.546;9.896;2023-11-19T06:40:34;7.90;99.90
21115;DHT22;10715;48.546;9.896;2023-11-19T06:43:00;8.00;99.90
21115;DHT22;10715;48.546;9.896;2023-11-19T06:45:28;8.00;99.90
21115;DHT22;10715;48.546;9.896;2023-11-19T06:47:53;8.10;99.90
21115;DHT22;10715;48.546;9.896;2023-11-19T06:50:19;8.20;99.90
21115;DHT22;10715;48.546;9.896;2023-11-19T06:52:45;8.20;99.90
21115;DHT22;10715;48.546;9.896;2023-11-19T06:55:12;8.30;99.90
21115;DHT22;10715;48.546;9.896;2023-11-19T06:57:37;8.40;99.90
21115;DHT22;10715;48.546;9.896;2023-11-19T07:00:05;8.40;99.90
21115;DHT22;10715;48.546;9.896;2023-11-19T07:02:31;8.40;99.90
21115;DHT22;10715;48.546;9.896;2023-11-19T07:04:57;8.40;99.90
21115;DHT22;10715;48.546;9.896;2023-11-19T07:07:23;8.60;99.90
21115;DHT22;10715;48.546;9.896;2023-11-19T07:09:49;8.60;99.90
21115;DHT22;10715;48.546;9.896;2023-11-19T07:12:15;8.70;99.90
21115;DHT22;10715;48.546;9.896;2023-11-19T07:14:41;8.70;99.90
21115;DHT22;10715;48.546;9.896;2023-11-19T07:17:07;8.80;99.90
21115;DHT22;10715;48.546;9.896;2023-11-19T07:19:34;8.80;99.90
21115;DHT22;10715;48.546;9.896;2023-11-19T07:22:02;8.90;99.90
21115;DHT22;10715;48.546;9.896;2023-11-19T07:24:27;8.90;99.90
21115;DHT22;10715;48.546;9.896;2023-11-19T07:26:54;8.90;99.90
21115;DHT22;10715;48.546;9.896;2023-11-19T07:29:20;8.90;99.90
21115;DHT22;10715;48.546;9.896;2023-11-19T07:31:49;8.90;99.90
21115;DHT22;10715;48.546;9.896;2023-11-19T07:34:15;8.90;99.90
21115;DHT22;10715;48.546;9.896;2023-11-19T07:36:40;8.90;99.90
21115;DHT22;10715;48.546;9.896;2023-11-19T07:39:06;8.90;99.90
21115;DHT22;10715;48.546;9.896;2023-11-19T07:41:32;8.90;99.90
21115;DHT22;10715;48.546;9.896;2023-11-19T07:43:58;8.80;99.90
21115;DHT22;10715;48.546;9.896;2023-11-19T07:46:24;8.80;99.90
21115;DHT22;10715;48.546;9.896;2023-11-19T07:48:50;8.80;99.90
21115;DHT22;10715;48.546;9.896;2023-11-19T07:51:16;8.70;99.90
21115;DHT22;10715;48.546;9.896;2023-11-19T07:53:42;8.70;99.90
21115;DHT22;10715;48.546;9.896;2023-11-19T07:56:08;8.70;99.90
21115;DHT22;10715;48.546;9.896;2023-11-19T07:58:34;8.70;99.90
21115;DHT22;10715;48.546;9.896;2023-11-19T08:01:00;8.70;99.90
21115;DHT22;10715;48.546;9.896;2023-11-19T08:03:27;8.60;99.90
21115;DHT22;10715;48.546;9.896;2023-11-19T08:05:55;8.60;99.90
21115;DHT22;10715;48.546;9.896;2023-11-19T08:08:22;8.60;99.90
21115;DHT22;10715;48.546;9.896;2023-11-19T08:10:48;8.60;99.90
21115;DHT22;10715;48.546;9.896;2023-11-19T08:13:14;8.60;99.90
21115;DHT22;10715;48.546;9.896;2023-11-19T08:15:40;8.60;99.90
21115;DHT22;10715;48.546;9.896;2023-11-19T08:18:06;8.60;99.90
21115;DHT22;10715;48.546;9.896;2023-11-19T08:20:33;8.60;99.90
21115;DHT22;10715;48.546;9.896;2023-11-19T08:22:59;8.60;99.90
21115;DHT22;10715;48.546;9.896;2023-11-19T08:25:25;8.60;99.90
21115;DHT22;10715;48.546;9.896;2023-11-19T08:27:51;8.60;99.90
21115;DHT22;10715;48.546;9.896;2023-11-19T08:30:17;8.60;99.90
21115;DHT22;10715;48.546;9.896;2023-11-19T08:32:43;8.60;99.90
21115;DHT22;10715;48.546;9.896;2023-11-19T08:35:09;8.60;99.90
21115;DHT22;10715;48.546;9.896;2023-11-19T08:37:34;8.60;99.90
21115;DHT22;10715;48.546;9.896;2023-11-19T08:40:02;8.70;99.90
21115;DHT22;10715;48.546;9.896;2023-11-19T08:42:29;8.60;99.90
21115;DHT22;10715;48.546;9.896;2023-11-19T08:44:55;8.60;99.90
21115;DHT22;10715;48.546;9.896;2023-11-19T08:47:21;8.70;99.90
21115;DHT22;10715;48.546;9.896;2023-11-19T08:49:50;8.70;99.90
21115;DHT22;10715;48.546;9.896;2023-11-19T08:52:17;8.70;99.90
21115;DHT22;10715;48.546;9.896;2023-11-19T08:54:43;8.70;99.90
21115;DHT22;10715;48.546;9.896;2023-11-19T08:57:09;8.70;99.90
21115;DHT22;10715;48.546;9.896;2023-11-19T08:59:35;8.80;99.90
21115;DHT22;10715;48.546;9.896;2023-11-19T09:02:00;8.80;99.90
21115;DHT22;10715;48.546;9.896;2023-11-19T09:04:27;8.80;99.90
21115;DHT22;10715;48.546;9.896;2023-11-19T09:06:53;8.80;99.90
21115;DHT22;10715;48.546;9.896;2023-11-19T09:09:19;8.80;99.90
21115;DHT22;10715;48.546;9.896;2023-11-19T09:11:44;8.90;99.90
21115;DHT22;10715;48.546;9.896;2023-11-19T09:14:10;8.90;99.90
21115;DHT22;10715;48.546;9.896;2023-11-19T09:16:36;8.90;99.90
21115;DHT22;10715;48.546;9.896;2023-11-19T09:19:01;9.00;99.90
21115;DHT22;10715;48.546;9.896;2023-11-19T09:21:28;9.00;99.90
21115;DHT22;10715;48.546;9.896;2023-11-19T09:23:57;9.10;99.90
21115;DHT22;10715;48.546;9.896;2023-11-19T09:26:22;9.10;99.90
21115;DHT22;10715;48.546;9.896;2023-11-19T09:28:48;9.20;99.90
21115;DHT22;10715;48.546;9.896;2023-11-19T09:31:15;9.20;99.90
21115;DHT22;10715;48.546;9.896;2023-11-19T09:33:42;9.30;99.90
21115;DHT22;10715;48.546;9.896;2023-11-19T09:36:12;9.40;99.90
21115;DHT22;10715;48.546;9.896;2023-11-19T09:38:43;9.60;99.90
21115;DHT22;10715;48.546;9.896;2023-11-19T09:41:10;9.70;99.90
21115;DHT22;10715;48.546;9.896;2023-11-19T09:43:40;9.70;99.90
21115;DHT22;10715;48.546;9.896;2023-11-19T09:46:07;9.80;99.90
21115;DHT22;10715;48.546;9.896;2023-11-19T09:48:36;9.90;99.90
21115;DHT22;10715;48.546;9.896;2023-11-19T09:51:09;9.90;99.90
21115;DHT22;10715;48.546;9.896;2023-11-19T09:53:35;9.90;99.90
21115;DHT22;10715;48.546;9.896;2023-11-19T09:56:03;10.00;99.90
21115;DHT22;10715;48.546;9.896;2023-11-19T09:58:32;10.00;99.90
21115;DHT22;10715;48.546;9.896;2023-11-19T10:00:59;10.00;99.90
21115;DHT22;10715;48.546;9.896;2023-11-19T10:03:35;10.10;99.90
21115;DHT22;10715;48.546;9.896;2023-11-19T10:06:04;10.10;99.90
21115;DHT22;10715;48.546;9.896;2023-11-19T10:08:32;10.10;99.90
21115;DHT22;10715;48.546;9.896;2023-11-19T10:10:57;10.10;99.90
21115;DHT22;10715;48.546;9.896;2023-11-19T10:13:28;10.10;99.90
21115;DHT22;10715;48.546;9.896;2023-11-19T10:15:58;10.10;99.90
21115;DHT22;10715;48.546;9.896;2023-11-19T10:18:27;10.10;99.90
21115;DHT22;10715;48.546;9.896;2023-11-19T10:20:54;10.20;99.90
21115;DHT22;10715;48.546;9.896;2023-11-19T10:23:21;10.20;99.90
21115;DHT22;10715;48.546;9.896;2023-11-19T10:25:47;10.20;99.90
21115;DHT22;10715;48.546;9.896;2023-11-19T10:28:18;10.20;99.90
21115;DHT22;10715;48.546;9.896;2023-11-19T10:30:44;10.20;99.90
21115;DHT22;10715;48.546;9.896;2023-11-19T10:33:10;10.20;99.90
21115;DHT22;10715;48.546;9.896;2023-11-19T10:35:57;10.20;99.90
21115;DHT22;10715;48.546;9.896;2023-11-19T10:38:24;10.20;99.90
21115;DHT22;10715;48.546;9.896;2023-11-19T10:40:50;10.20;99.90
21115;DHT22;10715;48.546;9.896;2023-11-19T10:43:17;10.20;99.90
21115;DHT22;10715;48.546;9.896;2023-11-19T10:45:43;10.20;99.90
21115;DHT22;10715;48.546;9.896;2023-11-19T10:48:09;10.20;99.90
21115;DHT22;10715;48.546;9.896;2023-11-19T10:50:37;10.30;99.90
21115;DHT22;10715;48.546;9.896;2023-11-19T10:53:03;10.30;99.90
21115;DHT22;10715;48.546;9.896;2023-11-19T10:55:31;10.30;99.90
21115;DHT22;10715;48.546;9.896;2023-11-19T10:58:03;10.30;99.90
21115;DHT22;10715;48.546;9.896;2023-11-19T11:00:30;10.40;99.90
21115;DHT22;10715;48.546;9.896;2023-11-19T11:03:08;10.40;99.90
21115;DHT22;10715;48.546;9.896;2023-11-19T11:05:36;10.50;99.90
21115;DHT22;10715;48.546;9.896;2023-11-19T11:08:06;10.50;99.90
21115;DHT22;10715;48.546;9.896;2023-11-19T11:10:36;10.50;99.90
21115;DHT22;10715;48.546;9.896;2023-11-19T11:13:05;10.60;99.90
21115;DHT22;10715;48.546;9.896;2023-11-19T11:15:31;10.60;99.90
21115;DHT22;10715;48.546;9.896;2023-11-19T11:18:04;10.70;99.90
21115;DHT22;10715;48.546;9.896;2023-11-19T11:20:34;10.70;99.90
21115;DHT22;10715;48.546;9.896;2023-11-19T11:29:10;10.80;99.90
21115;DHT22;10715;48.546;9.896;2023-11-19T11:32:08;10.80;99.90
21115;DHT22;10715;48.546;9.896;2023-11-19T11:34:58;10.80;99.90
21115;DHT22;10715;48.546;9.896;2023-11-19T11:39:58;10.90;99.90
21115;DHT22;10715;48.546;9.896;2023-11-19T11:42:33;11.00;99.90
21115;DHT22;10715;48.546;9.896;2023-11-19T11:44:59;11.00;99.90
21115;DHT22;10715;48.546;9.896;2023-11-19T11:47:26;11.10;99.90
21115;DHT22;10715;48.546;9.896;2023-11-19T11:49:52;11.10;99.90
21115;DHT22;10715;48.546;9.896;2023-11-19T11:52:19;11.10;99.90
21115;DHT22;10715;48.546;9.896;2023-11-19T11:54:45;11.20;99.90
21115;DHT22;10715;48.546;9.896;2023-11-19T11:57:14;11.20;99.90
21115;DHT22;10715;48.546;9.896;2023-11-19T11:59:47;11.20;99.90
21115;DHT22;10715;48.546;9.896;2023-11-19T12:02:21;11.20;99.90
21115;DHT22;10715;48.546;9.896;2023-11-19T12:04:49;11.20;99.90
21115;DHT22;10715;48.546;9.896;2023-11-19T12:07:19;11.30;99.90
21115;DHT22;10715;48.546;9.896;2023-11-19T12:10:08;11.30;99.90
21115;DHT22;10715;48.546;9.896;2023-11-19T12:12:34;11.30;99.90
21115;DHT22;10715;48.546;9.896;2023-11-19T12:15:11;11.30;99.90
21115;DHT22;10715;48.546;9.896;2023-11-19T12:17:42;11.30;99.90
21115;DHT22;10715;48.546;9.896;2023-11-19T12:20:10;11.30;99.90
21115;DHT22;10715;48.546;9.896;2023-11-19T12:22:41;11.40;99.90
21115;DHT22;10715;48.546;9.896;2023-11-19T12:25:09;11.40;99.90
21115;DHT22;10715;48.546;9.896;2023-11-19T12:27:45;11.40;99.90
21115;DHT22;10715;48.546;9.896;2023-11-19T12:30:11;11.40;99.90
21115;DHT22;10715;48.546;9.896;2023-11-19T12:32:42;11.30;99.90
21115;DHT22;10715;48.546;9.896;2023-11-19T12:35:09;11.30;99.90
21115;DHT22;10715;48.546;9.896;2023-11-19T12:37:47;11.30;99.90
21115;DHT22;10715;48.546;9.896;2023-11-19T12:40:23;11.30;99.90
21115;DHT22;10715;48.546;9.896;2023-11-19T12:42:54;11.30;99.90
21115;DHT22;10715;48.546;9.896;2023-11-19T12:45:21;11.30;99.90
21115;DHT22;10715;48.546;9.896;2023-11-19T12:47:49;11.30;99.90
21115;DHT22;10715;48.546;9.896;2023-11-19T12:50:17;11.30;99.90
21115;DHT22;10715;48.546;9.896;2023-11-19T12:52:55;11.40;99.90
21115;DHT22;10715;48.546;9.896;2023-11-19T12:55:29;11.40;99.90
21115;DHT22;10715;48.546;9.896;2023-11-19T12:57:55;11.40;99.90
21115;DHT22;10715;48.546;9.896;2023-11-19T13:00:23;11.40;99.90
21115;DHT22;10715;48.546;9.896;2023-11-19T13:02:54;11.40;99.90
21115;DHT22;10715;48.546;9.896;2023-11-19T13:05:31;11.50;99.90
21115;DHT22;10715;48.546;9.896;2023-11-19T13:08:06;11.50;99.90
21115;DHT22;10715;48.546;9.896;2023-11-19T13:10:33;11.50;99.90
21115;DHT22;10715;48.546;9.896;2023-11-19T13:13:07;11.60;99.90
21115;DHT22;10715;48.546;9.896;2023-11-19T13:15:34;11.60;99.90
21115;DHT22;10715;48.546;9.896;2023-11-19T13:18:01;11.70;99.90
21115;DHT22;10715;48.546;9.896;2023-11-19T13:20:27;11.70;99.90
21115;DHT22;10715;48.546;9.896;2023-11-19T13:25:20;11.70;99.90
21115;DHT22;10715;48.546;9.896;2023-11-19T13:27:46;11.70;99.90
21115;DHT22;10715;48.546;9.896;2023-11-19T13:30:14;11.70;99.90
21115;DHT22;10715;48.546;9.896;2023-11-19T13:32:41;11.80;99.90
21115;DHT22;10715;48.546;9.896;2023-11-19T13:35:07;11.80;99.90
21115;DHT22;10715;48.546;9.896;2023-11-19T13:37:34;11.90;99.90
21115;DHT22;10715;48.546;9.896;2023-11-19T13:40:00;11.90;99.90
21115;DHT22;10715;48.546;9.896;2023-11-19T13:42:26;11.90;99.90
21115;DHT22;10715;48.546;9.896;2023-11-19T13:44:54;11.90;99.90
21115;DHT22;10715;48.546;9.896;2023-11-19T13:47:20;12.00;99.90
21115;DHT22;10715;48.546;9.896;2023-11-19T13:49:46;12.00;99.90
21115;DHT22;10715;48.546;9.896;2023-11-19T13:52:12;12.00;99.90
21115;DHT22;10715;48.546;9.896;2023-11-19T13:54:37;12.00;99.90
21115;DHT22;10715;48.546;9.896;2023-11-19T13:57:04;12.00;99.90
21115;DHT22;10715;48.546;9.896;2023-11-19T13:59:31;12.00;99.90
21115;DHT22;10715;48.546;9.896;2023-11-19T14:01:58;12.00;99.90
21115;DHT22;10715;48.546;9.896;2023-11-19T14:04:23;11.90;99.90
21115;DHT22;10715;48.546;9.896;2023-11-19T14:06:50;11.90;99.90
21115;DHT22;10715;48.546;9.896;2023-11-19T14:09:16;11.90;99.90
21115;DHT22;10715;48.546;9.896;2023-11-19T14:11:41;11.90;99.90
21115;DHT22;10715;48.546;9.896;2023-11-19T14:14:07;11.80;99.90
21115;DHT22;10715;48.546;9.896;2023-11-19T14:16:33;11.80;99.90
21115;DHT22;10715;48.546;9.896;2023-11-19T14:19:02;11.80;99.90
21115;DHT22;10715;48.546;9.896;2023-11-19T14:21:28;11.70;99.90
21115;DHT22;10715;48.546;9.896;2023-11-19T14:23:53;11.70;99.90
21115;DHT22;10715;48.546;9.896;2023-11-19T14:26:19;11.60;99.90
21115;DHT22;10715;48.546;9.896;2023-11-19T14:28:45;11.60;99.90
21115;DHT22;10715;48.546;9.896;2023-11-19T14:31:11;11.50;99.90
21115;DHT22;10715;48.546;9.896;2023-11-19T14:33:39;11.50;99.90
21115;DHT22;10715;48.546;9.896;2023-11-19T14:36:05;11.50;99.90
21115;DHT22;10715;48.546;9.896;2023-11-19T14:38:34;11.40;99.90
21115;DHT22;10715;48.546;9.896;2023-11-19T14:40:59;11.40;99.90
21115;DHT22;10715;48.546;9.896;2023-11-19T14:43:25;11.40;99.90
21115;DHT22;10715;48.546;9.896;2023-11-19T14:45:51;11.30;99.90
21115;DHT22;10715;48.546;9.896;2023-11-19T14:48:18;11.30;99.90
21115;DHT22;10715;48.546;9.896;2023-11-19T14:50:43;11.20;99.90
21115;DHT22;10715;48.546;9.896;2023-11-19T14:53:10;11.20;99.90
21115;DHT22;10715;48.546;9.896;2023-11-19T14:55:36;11.20;99.90
21115;DHT22;10715;48.546;9.896;2023-11-19T14:58:02;11.10;99.90
21115;DHT22;10715;48.546;9.896;2023-11-19T15:00:30;11.10;99.90
21115;DHT22;10715;48.546;9.896;2023-11-19T15:02:56;11.10;99.90
21115;DHT22;10715;48.546;9.896;2023-11-19T15:05:21;11.00;99.90
21115;DHT22;10715;48.546;9.896;2023-11-19T15:07:47;11.00;99.90
21115;DHT22;10715;48.546;9.896;2023-11-19T15:10:14;11.00;99.90
21115;DHT22;10715;48.546;9.896;2023-11-19T15:12:39;11.00;99.90
21115;DHT22;10715;48.546;9.896;2023-11-19T15:15:08;11.00;99.90
21115;DHT22;10715;48.546;9.896;2023-11-19T15:17:35;10.90;99.90
21115;DHT22;10715;48.546;9.896;2023-11-19T15:20:05;10.90;99.90
21115;DHT22;10715;48.546;9.896;2023-11-19T15:22:31;10.80;99.90
21115;DHT22;10715;48.546;9.896;2023-11-19T15:24:57;10.80;99.90
21115;DHT22;10715;48.546;9.896;2023-11-19T15:27:23;10.80;99.90
21115;DHT22;10715;48.546;9.896;2023-11-19T15:29:49;10.80;99.90
21115;DHT22;10715;48.546;9.896;2023-11-19T15:32:14;10.70;99.90
21115;DHT22;10715;48.546;9.896;2023-11-19T15:34:40;10.70;99.90
21115;DHT22;10715;48.546;9.896;2023-11-19T15:37:07;10.60;99.90
21115;DHT22;10715;48.546;9.896;2023-11-19T15:39:33;10.50;99.90
21115;DHT22;10715;48.546;9.896;2023-11-19T15:42:02;10.50;99.90
21115;DHT22;10715;48.546;9.896;2023-11-19T15:44:28;10.40;99.90
21115;DHT22;10715;48.546;9.896;2023-11-19T15:46:54;10.40;99.90
21115;DHT22;10715;48.546;9.896;2023-11-19T15:49:20;10.30;99.90
21115;DHT22;10715;48.546;9.896;2023-11-19T15:51:46;10.30;99.90
21115;DHT22;10715;48.546;9.896;2023-11-19T15:54:13;10.30;99.90